Time;durP1;ratioP1;P1;durP2;ratioP2;P2;SDS_P1;SDS_P2;PMS_P1;PMS_P2;Temp;Humidity;BMP_temperature;BMP_pressure;BME280_temperature;BME280_humidity;BME280_pressure;Samples;Min_cycle;Max_cycle;Signal;HPM_P1;HPM_P2
2021/01/20 00:00:14;;;;;;;16.27;11.03;;;;;;;;;;2089771;28;20195;-62
2021/01/20 00:01:14;;;;;;;13.63;11.50;;;;;;;;;;2089539;28;20180;-61
2021/01/20 00:02:14;;;;;;;16.03;11.73;;;;;;;;;;2089274;28;20540;-61
2021/01/20 00:03:14;;;;;;;15.93;11.47;;;;;;;;;;2089494;28;20679;-61
2021/01/20 00:04:15;;;;;;;16.50;10.97;;;;;;;;;;2089651;28;20547;-60
2021/01/20 00:05:15;;;;;;;16.03;11.63;;;;;;;;;;2089763;28;20539;-60
2021/01/20 00:06:15;;;;;;;12.33;10.97;;;;;;;;;;2089564;28;20182;-61
2021/01/20 00:07:15;;;;;;;14.33;11.13;;;;;;;;;;2075681;28;20240;-61
2021/01/20 00:08:16;;;;;;;13.37;10.77;;;;;;;;;;2072910;28;20180;-64
2021/01/20 00:09:16;;;;;;;13.00;10.10;;;;;;;;;;2073061;28;20248;-63
2021/01/20 00:10:16;;;;;;;12.73;10.93;;;;;;;;;;2081505;28;20227;-58
2021/01/20 00:11:17;;;;;;;12.10;10.83;;;;;;;;;;2086280;28;20167;-61
2021/01/20 00:12:17;;;;;;;14.47;10.03;;;;;;;;;;2089703;28;20629;-60
2021/01/20 00:13:17;;;;;;;12.77;9.77;;;;;;;;;;2080687;28;20175;-64
2021/01/20 00:14:18;;;;;;;11.87;9.07;;;;;;;;;;2080924;28;20188;-61
2021/01/20 00:15:22;;;;;;;11.97;10.17;;;;;;;;;;2089786;28;20248;-62
2021/01/20 00:16:22;;;;;;;11.03;8.87;;;;;;;;;;2089632;28;20180;-63
2021/01/20 00:17:23;;;;;;;13.07;9.53;;;;;;;;;;2089655;28;20234;-61
2021/01/20 00:18:23;;;;;;;13.83;9.43;;;;;;;;;;2080762;28;20168;-61
2021/01/20 00:19:23;;;;;;;15.30;10.97;;;;;;;;;;2079157;28;20187;-61
2021/01/20 00:20:23;;;;;;;12.07;10.30;;;;;;;;;;2080579;28;20180;-59
2021/01/20 00:21:24;;;;;;;12.93;9.30;;;;;;;;;;2080203;28;20180;-63
2021/01/20 00:22:28;;;;;;;14.03;9.77;;;;;;;;;;2088999;28;20253;-59
2021/01/20 00:23:28;;;;;;;10.80;9.33;;;;;;;;;;2086180;28;20665;-61
2021/01/20 00:24:28;;;;;;;11.93;8.90;;;;;;;;;;2079538;28;20208;-60
2021/01/20 00:25:28;;;;;;;10.17;9.17;;;;;;;;;;2077498;28;20205;-60
2021/01/20 00:26:29;;;;;;;9.70;8.33;;;;;;;;;;2080835;28;20605;-63
2021/01/20 00:27:29;;;;;;;11.40;9.33;;;;;;;;;;2080438;28;20172;-60
2021/01/20 00:28:29;;;;;;;10.20;8.53;;;;;;;;;;2088684;28;20583;-63
2021/01/20 00:29:29;;;;;;;10.53;8.03;;;;;;;;;;2089512;28;20660;-63
2021/01/20 00:30:30;;;;;;;11.17;8.73;;;;;;;;;;2084893;28;20252;-60
2021/01/20 00:31:30;;;;;;;11.20;9.50;;;;;;;;;;2088800;28;20172;-61
2021/01/20 00:32:30;;;;;;;12.13;9.67;;;;;;;;;;2088847;28;20194;-58
2021/01/20 00:33:30;;;;;;;11.07;9.70;;;;;;;;;;2080079;28;20228;-61
2021/01/20 00:34:31;;;;;;;10.50;9.53;;;;;;;;;;2080461;28;20208;-57
2021/01/20 00:35:31;;;;;;;10.37;9.07;;;;;;;;;;2089008;28;20207;-59
2021/01/20 00:36:31;;;;;;;13.60;9.70;;;;;;;;;;2088334;28;20179;-62
2021/01/20 00:37:32;;;;;;;12.23;10.60;;;;;;;;;;2088386;28;20335;-63
2021/01/20 00:38:32;;;;;;;12.47;10.33;;;;;;;;;;2089817;28;20671;-61
2021/01/20 00:39:32;;;;;;;11.00;9.90;;;;;;;;;;2080903;28;20614;-58
2021/01/20 00:40:32;;;;;;;10.87;9.27;;;;;;;;;;2080775;28;20218;-58
2021/01/20 00:41:33;;;;;;;12.70;9.97;;;;;;;;;;2089413;28;20255;-62
2021/01/20 00:42:33;;;;;;;11.63;9.97;;;;;;;;;;2080852;28;20187;-60
2021/01/20 00:43:33;;;;;;;10.43;9.43;;;;;;;;;;2080695;28;20332;-60
2021/01/20 00:44:35;;;;;;;10.83;9.47;;;;;;;;;;2089810;28;20168;-60
2021/01/20 00:45:36;;;;;;;11.97;9.80;;;;;;;;;;2089546;28;20263;-60
2021/01/20 00:46:36;;;;;;;11.90;9.80;;;;;;;;;;2089787;28;20636;-59
2021/01/20 00:47:36;;;;;;;11.77;10.47;;;;;;;;;;2080448;28;20187;-63
2021/01/20 00:48:37;;;;;;;12.07;10.83;;;;;;;;;;2072651;28;20211;-57
2021/01/20 00:49:37;;;;;;;13.47;9.67;;;;;;;;;;2064118;28;20648;-62
2021/01/20 00:50:38;;;;;;;11.73;10.53;;;;;;;;;;2064682;28;20177;-63
2021/01/20 00:51:38;;;;;;;16.07;11.23;;;;;;;;;;2080517;28;20194;-62
2021/01/20 00:52:39;;;;;;;11.53;10.37;;;;;;;;;;2089588;28;20187;-61
2021/01/20 00:55:00;;;;;;;11.40;10.00;;;;;;;;;;2091790;28;20233;-58
2021/01/20 00:56:00;;;;;;;11.30;10.20;;;;;;;;;;2088552;28;20183;-55
2021/01/20 00:57:01;;;;;;;13.07;10.40;;;;;;;;;;2079462;28;20203;-56
2021/01/20 00:58:01;;;;;;;10.17;9.23;;;;;;;;;;2082953;28;20160;-58
2021/01/20 00:59:01;;;;;;;11.13;9.87;;;;;;;;;;2088648;28;20174;-59
2021/01/20 01:00:03;;;;;;;11.67;9.80;;;;;;;;;;2088317;28;20167;-59
2021/01/20 01:01:09;;;;;;;11.33;9.70;;;;;;;;;;2090103;28;20171;-57
2021/01/20 01:02:09;;;;;;;15.57;11.17;;;;;;;;;;2088730;28;20172;-59
2021/01/20 01:03:13;;;;;;;12.17;9.93;;;;;;;;;;2093391;28;20169;-59
2021/01/20 01:04:14;;;;;;;11.70;10.47;;;;;;;;;;2092361;28;20191;-59
2021/01/20 01:05:15;;;;;;;11.23;9.73;;;;;;;;;;2096937;28;20250;-59
2021/01/20 01:06:19;;;;;;;11.57;10.37;;;;;;;;;;2104888;28;20630;-56
2021/01/20 01:07:19;;;;;;;10.57;9.57;;;;;;;;;;2090202;28;20183;-59
2021/01/20 01:08:22;;;;;;;11.43;10.17;;;;;;;;;;2091448;28;20160;-60
2021/01/20 01:09:22;;;;;;;11.20;10.07;;;;;;;;;;2090883;28;20168;-58
2021/01/20 01:10:23;;;;;;;16.23;11.33;;;;;;;;;;2091733;28;20198;-59
2021/01/20 01:11:35;;;;;;;12.43;10.90;;;;;;;;;;2103228;28;20192;-58
2021/01/20 01:12:36;;;;;;;12.17;10.93;;;;;;;;;;2091932;28;20179;-58
2021/01/20 01:13:37;;;;;;;11.23;9.97;;;;;;;;;;2091635;28;20619;-57
2021/01/20 01:15:00;;;;;;;11.80;10.20;;;;;;;;;;2094386;28;20175;-59
2021/01/20 01:16:05;;;;;;;12.27;10.70;;;;;;;;;;2098079;28;20190;-60
2021/01/20 01:17:05;;;;;;;11.93;9.47;;;;;;;;;;2089656;28;20183;-58
2021/01/20 01:18:17;;;;;;;13.50;10.57;;;;;;;;;;2091296;28;20615;-59
2021/01/20 01:19:17;;;;;;;15.20;10.33;;;;;;;;;;2099771;28;20173;-57
2021/01/20 01:20:18;;;;;;;11.23;9.70;;;;;;;;;;2110808;28;20195;-57
2021/01/20 01:21:18;;;;;;;12.13;10.93;;;;;;;;;;2097536;28;20178;-58
2021/01/20 01:22:18;;;;;;;11.93;10.23;;;;;;;;;;2095469;28;20194;-58
2021/01/20 01:23:21;;;;;;;11.20;10.10;;;;;;;;;;2095607;28;20257;-57
2021/01/20 01:24:22;;;;;;;12.20;10.10;;;;;;;;;;2089528;28;20188;-58
2021/01/20 01:25:22;;;;;;;14.73;10.30;;;;;;;;;;2089063;28;20999;-58
2021/01/20 01:26:24;;;;;;;10.60;9.50;;;;;;;;;;2097225;28;20171;-56
2021/01/20 01:27:25;;;;;;;11.57;10.00;;;;;;;;;;2098233;28;20155;-58
2021/01/20 01:28:29;;;;;;;9.73;8.40;;;;;;;;;;2097502;28;20595;-58
2021/01/20 01:29:45;;;;;;;10.57;9.47;;;;;;;;;;2084505;28;20275;-58
2021/01/20 01:31:03;;;;;;;10.53;9.30;;;;;;;;;;2101281;28;20202;-60
2021/01/20 01:32:06;;;;;;;13.17;9.60;;;;;;;;;;2098004;28;20163;-58
2021/01/20 01:33:07;;;;;;;10.43;8.80;;;;;;;;;;2089551;28;20166;-59
2021/01/20 01:34:11;;;;;;;9.47;8.67;;;;;;;;;;2086724;28;20221;-59
2021/01/20 01:35:12;;;;;;;12.87;9.57;;;;;;;;;;2093149;28;20167;-57
2021/01/20 01:36:16;;;;;;;10.00;9.00;;;;;;;;;;2096386;28;20166;-57
2021/01/20 01:37:17;;;;;;;8.73;7.97;;;;;;;;;;2098096;28;20186;-56
2021/01/20 01:38:53;;;;;;;10.67;8.60;;;;;;;;;;2070259;28;20174;-58
2021/01/20 01:40:00;;;;;;;9.93;8.93;;;;;;;;;;2098451;28;20210;-56
2021/01/20 01:41:01;;;;;;;8.60;7.70;;;;;;;;;;2094899;28;20267;-56
2021/01/20 01:42:24;;;;;;;10.80;7.87;;;;;;;;;;2101247;28;20174;-65
2021/01/20 01:43:25;;;;;;;11.70;8.80;;;;;;;;;;2094152;28;20171;-58
2021/01/20 01:44:44;;;;;;;8.93;7.57;;;;;;;;;;2098092;28;20198;-59
2021/01/20 01:45:48;;;;;;;8.80;8.00;;;;;;;;;;2093030;28;20183;-59
2021/01/20 01:46:49;;;;;;;9.10;7.47;;;;;;;;;;2096993;28;20186;-58
2021/01/20 01:48:05;;;;;;;7.90;7.10;;;;;;;;;;2083577;28;20190;-58
2021/01/20 01:49:06;;;;;;;7.40;6.60;;;;;;;;;;2083381;28;20214;-60
2021/01/20 01:50:08;;;;;;;10.20;7.13;;;;;;;;;;2098886;28;20599;-56
2021/01/20 01:51:09;;;;;;;8.57;7.07;;;;;;;;;;2097617;28;20698;-58
2021/01/20 01:52:21;;;;;;;9.73;8.17;;;;;;;;;;2091386;28;20210;-56
2021/01/20 01:53:27;;;;;;;12.27;7.23;;;;;;;;;;2099062;28;20175;-58
2021/01/20 01:54:46;;;;;;;9.73;6.37;;;;;;;;;;2090829;28;20909;-59
2021/01/20 01:56:14;;;;;;;10.40;6.57;;;;;;;;;;2093452;28;20182;-57
2021/01/20 01:57:24;;;;;;;7.17;5.93;;;;;;;;;;2082895;28;20175;-58
2021/01/20 01:58:26;;;;;;;7.17;6.47;;;;;;;;;;2082880;28;20188;-58
2021/01/20 01:59:34;;;;;;;7.67;5.60;;;;;;;;;;2092322;28;20209;-55
2021/01/20 02:00:36;;;;;;;7.23;6.33;;;;;;;;;;2089824;28;20171;-59
2021/01/20 02:01:52;;;;;;;6.27;5.23;;;;;;;;;;2085300;28;20187;-56
2021/01/20 02:03:01;;;;;;;6.87;5.97;;;;;;;;;;2081615;28;20187;-58
2021/01/20 02:04:02;;;;;;;6.73;5.60;;;;;;;;;;2085843;28;20175;-58
2021/01/20 02:05:17;;;;;;;8.57;6.20;;;;;;;;;;2097546;28;20205;-62
2021/01/20 02:06:20;;;;;;;6.67;5.47;;;;;;;;;;2101112;28;20674;-56
2021/01/20 02:07:25;;;;;;;7.07;5.73;;;;;;;;;;2099945;28;20646;-62
2021/01/20 02:08:26;;;;;;;7.17;5.47;;;;;;;;;;2090383;28;20164;-58
2021/01/20 02:09:40;;;;;;;6.17;5.53;;;;;;;;;;2091450;28;20682;-61
2021/01/20 02:10:41;;;;;;;5.53;4.83;;;;;;;;;;2089478;28;20179;-58
2021/01/20 02:11:50;;;;;;;8.40;5.40;;;;;;;;;;2084707;28;20172;-57
2021/01/20 02:13:13;;;;;;;5.00;4.30;;;;;;;;;;2082168;28;20812;-58
2021/01/20 02:14:56;;;;;;;5.80;5.30;;;;;;;;;;2100800;28;20228;-58
2021/01/20 02:16:10;;;;;;;5.83;5.27;;;;;;;;;;2087816;28;20614;-61
2021/01/20 02:17:29;;;;;;;6.17;5.57;;;;;;;;;;2090303;28;20167;-57
2021/01/20 02:18:31;;;;;;;5.60;5.00;;;;;;;;;;2088712;28;20168;-57
2021/01/20 02:19:46;;;;;;;8.87;5.47;;;;;;;;;;2094033;28;20650;-59
2021/01/20 02:21:00;;;;;;;6.13;5.53;;;;;;;;;;2098649;28;20647;-59
2021/01/20 02:22:09;;;;;;;4.83;4.37;;;;;;;;;;2101895;28;20181;-59
2021/01/20 02:23:22;;;;;;;7.17;6.33;;;;;;;;;;2101834;28;20185;-55
2021/01/20 02:24:33;;;;;;;7.57;5.60;;;;;;;;;;2111197;28;20239;-60
2021/01/20 02:26:12;;;;;;;7.63;5.87;;;;;;;;;;2085678;28;20737;-58
2021/01/20 02:27:39;;;;;;;6.87;5.73;;;;;;;;;;2098501;28;20539;-59
2021/01/20 02:28:53;;;;;;;8.30;5.40;;;;;;;;;;2107540;28;20189;-56
2021/01/20 02:30:06;;;;;;;8.57;5.67;;;;;;;;;;2105505;28;20209;-60
2021/01/20 02:31:28;;;;;;;8.57;6.50;;;;;;;;;;2103167;28;20196;-61
2021/01/20 02:32:30;;;;;;;7.73;6.27;;;;;;;;;;2106888;28;20681;-56
2021/01/20 02:33:31;;;;;;;9.53;7.07;;;;;;;;;;2097421;28;20297;-56
2021/01/20 02:34:37;;;;;;;6.73;5.77;;;;;;;;;;2089821;28;20246;-58
2021/01/20 02:35:38;;;;;;;5.47;4.97;;;;;;;;;;2089000;28;20262;-54
2021/01/20 02:36:40;;;;;;;10.13;6.13;;;;;;;;;;2091799;28;20194;-64
2021/01/20 02:38:10;;;;;;;7.87;5.90;;;;;;;;;;2092343;28;20166;-58
2021/01/20 02:39:25;;;;;;;5.93;5.33;;;;;;;;;;2093435;28;20201;-58
2021/01/20 02:40:43;;;;;;;7.50;5.53;;;;;;;;;;2087618;28;20291;-58
2021/01/20 02:42:03;;;;;;;6.30;5.50;;;;;;;;;;2104943;28;20167;-58
2021/01/20 02:43:12;;;;;;;9.43;5.90;;;;;;;;;;2097950;28;20663;-57
2021/01/20 02:44:39;;;;;;;10.03;5.97;;;;;;;;;;2101291;28;20206;-58
2021/01/20 02:45:56;;;;;;;9.13;6.03;;;;;;;;;;2097365;28;20690;-60
2021/01/20 02:46:56;;;;;;;7.67;5.43;;;;;;;;;;2081527;28;20206;-59
2021/01/20 02:48:08;;;;;;;5.43;4.90;;;;;;;;;;2083332;28;20179;-59
2021/01/20 02:49:09;;;;;;;6.10;5.50;;;;;;;;;;2088748;28;20542;-57
2021/01/20 02:50:09;;;;;;;6.43;5.17;;;;;;;;;;2088660;28;20168;-58
2021/01/20 02:51:10;;;;;;;7.60;6.50;;;;;;;;;;2093750;28;20179;-59
2021/01/20 02:52:39;;;;;;;9.07;6.70;;;;;;;;;;2106034;28;20176;-58
2021/01/20 02:54:01;;;;;;;8.23;6.27;;;;;;;;;;2071560;28;20211;-58
2021/01/20 02:55:29;;;;;;;8.33;6.17;;;;;;;;;;2074084;28;20180;-54
2021/01/20 02:56:50;;;;;;;6.47;5.87;;;;;;;;;;2085414;28;20171;-58
2021/01/20 02:58:01;;;;;;;7.53;6.33;;;;;;;;;;2093194;28;20172;-56
2021/01/20 02:59:06;;;;;;;7.77;5.17;;;;;;;;;;2092190;28;20171;-54
2021/01/20 03:00:29;;;;;;;7.57;6.23;;;;;;;;;;2092357;28;20179;-56
2021/01/20 03:01:47;;;;;;;7.30;5.83;;;;;;;;;;2084314;28;20178;-56
2021/01/20 03:02:48;;;;;;;6.97;5.67;;;;;;;;;;2094232;28;20652;-59
2021/01/20 03:03:50;;;;;;;6.30;5.43;;;;;;;;;;2104375;28;20640;-59
2021/01/20 03:04:52;;;;;;;8.50;6.10;;;;;;;;;;2105292;28;20200;-59
2021/01/20 03:05:52;;;;;;;10.73;6.07;;;;;;;;;;2105951;28;20784;-60
2021/01/20 03:06:54;;;;;;;8.67;5.97;;;;;;;;;;2106242;28;20181;-59
2021/01/20 03:07:55;;;;;;;7.77;6.00;;;;;;;;;;2106140;28;20182;-57
2021/01/20 03:08:56;;;;;;;7.27;5.73;;;;;;;;;;2105842;28;20170;-59
2021/01/20 03:09:56;;;;;;;8.47;6.40;;;;;;;;;;2105654;28;20206;-58
2021/01/20 03:11:00;;;;;;;7.53;6.07;;;;;;;;;;2109393;28;20522;-58
2021/01/20 03:12:02;;;;;;;9.27;6.53;;;;;;;;;;2111598;28;20282;-58
2021/01/20 03:13:03;;;;;;;9.67;6.00;;;;;;;;;;2106520;28;20182;-57
2021/01/20 03:14:03;;;;;;;7.30;5.30;;;;;;;;;;2106303;28;20723;-59
2021/01/20 03:15:09;;;;;;;7.03;6.40;;;;;;;;;;2106865;28;20178;-59
2021/01/20 03:16:09;;;;;;;8.03;6.20;;;;;;;;;;2110918;28;20275;-57
2021/01/20 03:17:09;;;;;;;6.93;5.90;;;;;;;;;;2114692;28;20177;-61
2021/01/20 03:18:11;;;;;;;6.30;5.33;;;;;;;;;;2110869;28;20178;-63
2021/01/20 03:19:11;;;;;;;6.07;5.23;;;;;;;;;;2106772;28;20788;-59
2021/01/20 03:20:11;;;;;;;6.07;5.53;;;;;;;;;;2106689;28;20199;-57
2021/01/20 03:21:12;;;;;;;6.23;5.63;;;;;;;;;;2106773;28;20179;-57
2021/01/20 03:22:12;;;;;;;9.30;6.07;;;;;;;;;;2111880;28;20165;-62
2021/01/20 03:23:12;;;;;;;6.20;5.43;;;;;;;;;;2115423;28;20184;-62
2021/01/20 03:24:12;;;;;;;6.40;4.67;;;;;;;;;;2115571;28;20637;-57
2021/01/20 03:25:13;;;;;;;7.43;5.43;;;;;;;;;;2115652;28;20173;-62
2021/01/20 03:26:13;;;;;;;6.70;5.13;;;;;;;;;;2115797;28;20522;-59
2021/01/20 03:27:13;;;;;;;7.30;6.03;;;;;;;;;;2114501;28;20169;-58
2021/01/20 03:28:13;;;;;;;6.47;5.80;;;;;;;;;;2115280;28;20234;-55
2021/01/20 03:29:14;;;;;;;6.60;5.97;;;;;;;;;;2115431;28;20169;-59
2021/01/20 03:30:14;;;;;;;9.33;5.90;;;;;;;;;;2115559;28;20561;-62
2021/01/20 03:31:14;;;;;;;5.63;5.13;;;;;;;;;;2110510;28;20174;-63
2021/01/20 03:32:15;;;;;;;6.50;5.87;;;;;;;;;;2112420;28;20674;-59
2021/01/20 03:33:15;;;;;;;8.37;5.70;;;;;;;;;;2115477;28;20227;-56
2021/01/20 03:34:15;;;;;;;7.07;6.30;;;;;;;;;;2116106;28;20201;-59
2021/01/20 03:35:16;;;;;;;6.13;5.53;;;;;;;;;;2115419;28;20173;-59
2021/01/20 03:36:16;;;;;;;6.60;6.00;;;;;;;;;;2106466;28;20288;-62
2021/01/20 03:37:16;;;;;;;5.60;5.10;;;;;;;;;;2105873;28;20178;-58
2021/01/20 03:38:16;;;;;;;7.37;6.27;;;;;;;;;;2115306;28;20169;-56
2021/01/20 03:39:17;;;;;;;8.93;6.17;;;;;;;;;;2115350;28;20157;-63
2021/01/20 03:40:17;;;;;;;7.67;5.93;;;;;;;;;;2106535;28;20219;-59
2021/01/20 03:41:17;;;;;;;7.47;5.90;;;;;;;;;;2101269;28;20177;-59
2021/01/20 03:42:18;;;;;;;8.67;5.60;;;;;;;;;;2112356;28;20197;-59
2021/01/20 03:43:18;;;;;;;6.83;5.83;;;;;;;;;;2115496;28;20170;-57
2021/01/20 03:44:18;;;;;;;7.53;6.30;;;;;;;;;;2115537;28;20653;-56
2021/01/20 03:45:18;;;;;;;5.97;5.30;;;;;;;;;;2111585;28;20178;-59
2021/01/20 03:46:18;;;;;;;6.30;5.70;;;;;;;;;;2108137;28;20772;-63
2021/01/20 03:47:19;;;;;;;7.27;5.90;;;;;;;;;;2105773;28;20249;-59
2021/01/20 03:48:19;;;;;;;7.27;5.67;;;;;;;;;;2106273;28;20541;-58
2021/01/20 03:49:19;;;;;;;6.33;5.73;;;;;;;;;;2114244;28;20544;-58
2021/01/20 03:50:19;;;;;;;7.87;5.40;;;;;;;;;;2114997;28;20626;-59
2021/01/20 03:51:20;;;;;;;6.90;5.90;;;;;;;;;;2115362;28;20181;-62
2021/01/20 03:52:20;;;;;;;7.63;5.73;;;;;;;;;;2101180;28;20177;-58
2021/01/20 03:53:21;;;;;;;8.77;5.87;;;;;;;;;;2097531;28;20717;-60
2021/01/20 03:54:21;;;;;;;6.43;5.60;;;;;;;;;;2097357;28;20250;-58
2021/01/20 03:55:21;;;;;;;7.13;6.30;;;;;;;;;;2106638;28;20643;-56
2021/01/20 03:56:21;;;;;;;6.73;5.33;;;;;;;;;;2112491;28;20173;-55
2021/01/20 03:57:21;;;;;;;9.27;5.77;;;;;;;;;;2105637;28;20178;-58
2021/01/20 03:58:22;;;;;;;7.73;5.70;;;;;;;;;;2105942;28;20268;-57
2021/01/20 03:59:22;;;;;;;7.60;6.00;;;;;;;;;;2115147;28;20280;-58
2021/01/20 04:00:22;;;;;;;6.60;5.07;;;;;;;;;;2114927;28;20182;-59
2021/01/20 04:01:23;;;;;;;7.20;6.43;;;;;;;;;;2108935;28;20178;-59
2021/01/20 04:02:23;;;;;;;7.43;6.00;;;;;;;;;;2097563;28;20175;-56
2021/01/20 04:03:33;;;;;;;8.43;6.30;;;;;;;;;;2091101;28;20215;-58
2021/01/20 04:04:49;;;;;;;7.90;5.90;;;;;;;;;;2091662;28;20206;-57
2021/01/20 04:05:49;;;;;;;6.03;5.43;;;;;;;;;;2089629;28;20664;-60
2021/01/20 04:06:49;;;;;;;8.30;5.90;;;;;;;;;;2089779;28;20203;-55
2021/01/20 04:07:50;;;;;;;5.73;4.63;;;;;;;;;;2097844;28;20262;-57
2021/01/20 04:08:50;;;;;;;6.53;5.77;;;;;;;;;;2097877;28;20217;-57
2021/01/20 04:09:51;;;;;;;6.20;5.33;;;;;;;;;;2097190;28;20164;-56
2021/01/20 04:10:51;;;;;;;8.30;6.00;;;;;;;;;;2100952;28;20155;-56
2021/01/20 04:11:51;;;;;;;7.20;6.10;;;;;;;;;;2113731;28;20568;-58
2021/01/20 04:12:52;;;;;;;6.50;5.90;;;;;;;;;;2111096;28;20214;-59
2021/01/20 04:13:52;;;;;;;6.60;6.00;;;;;;;;;;2114580;28;20272;-56
2021/01/20 04:14:52;;;;;;;7.43;6.60;;;;;;;;;;2106438;28;20195;-58
2021/01/20 04:15:52;;;;;;;6.83;6.23;;;;;;;;;;2106037;28;20609;-55
2021/01/20 04:16:53;;;;;;;6.37;5.67;;;;;;;;;;2105967;28;20162;-55
2021/01/20 04:17:53;;;;;;;6.50;5.70;;;;;;;;;;2097512;28;20546;-56
2021/01/20 04:18:53;;;;;;;7.70;6.20;;;;;;;;;;2093099;28;20211;-56
2021/01/20 04:19:54;;;;;;;7.03;6.00;;;;;;;;;;2102924;28;20182;-59
2021/01/20 04:20:54;;;;;;;7.00;5.70;;;;;;;;;;2109845;28;20212;-57
2021/01/20 04:21:54;;;;;;;7.23;6.53;;;;;;;;;;2106540;28;20327;-58
2021/01/20 04:22:54;;;;;;;7.50;5.87;;;;;;;;;;2103414;28;20279;-58
2021/01/20 04:23:55;;;;;;;9.10;6.23;;;;;;;;;;2105945;28;20182;-58
2021/01/20 04:24:55;;;;;;;9.13;6.10;;;;;;;;;;2105633;28;20170;-59
2021/01/20 04:25:55;;;;;;;6.97;6.27;;;;;;;;;;2105928;28;20265;-57
2021/01/20 04:26:56;;;;;;;8.17;6.77;;;;;;;;;;2103164;28;20594;-57
2021/01/20 04:27:56;;;;;;;10.13;6.47;;;;;;;;;;2096351;28;20182;-58
2021/01/20 04:28:56;;;;;;;7.37;5.87;;;;;;;;;;2092750;28;20182;-58
2021/01/20 04:29:56;;;;;;;7.03;6.33;;;;;;;;;;2088826;28;20184;-54
2021/01/20 04:30:57;;;;;;;10.77;6.73;;;;;;;;;;2098072;28;20186;-57
2021/01/20 04:31:57;;;;;;;7.53;6.63;;;;;;;;;;2104226;28;20686;-59
2021/01/20 04:32:58;;;;;;;9.80;6.43;;;;;;;;;;2092752;28;20266;-57
2021/01/20 04:33:58;;;;;;;7.10;6.40;;;;;;;;;;2096671;28;20202;-55
2021/01/20 04:34:58;;;;;;;6.40;5.80;;;;;;;;;;2097170;28;20183;-57
2021/01/20 04:35:58;;;;;;;7.27;6.53;;;;;;;;;;2096492;28;20265;-59
2021/01/20 04:36:59;;;;;;;7.13;6.30;;;;;;;;;;2097692;28;20183;-59
2021/01/20 04:38:00;;;;;;;7.80;7.00;;;;;;;;;;2096266;28;20167;-59
2021/01/20 04:39:01;;;;;;;7.20;6.30;;;;;;;;;;2094598;28;20183;-59
2021/01/20 04:40:02;;;;;;;7.20;6.37;;;;;;;;;;2088083;28;20175;-59
2021/01/20 04:41:02;;;;;;;8.93;6.47;;;;;;;;;;2096248;28;20207;-60
2021/01/20 04:42:04;;;;;;;7.03;6.33;;;;;;;;;;2110564;28;20162;-59
2021/01/20 04:43:04;;;;;;;6.60;6.00;;;;;;;;;;2107188;28;20171;-60
2021/01/20 04:44:05;;;;;;;8.13;6.53;;;;;;;;;;2109307;28;20235;-60
2021/01/20 04:45:05;;;;;;;9.30;7.30;;;;;;;;;;2097150;28;20178;-57
2021/01/20 04:46:06;;;;;;;7.80;6.10;;;;;;;;;;2099527;28;20216;-59
2021/01/20 04:47:06;;;;;;;8.07;7.23;;;;;;;;;;2108729;28;20216;-56
2021/01/20 04:48:07;;;;;;;8.90;8.10;;;;;;;;;;2105711;28;20175;-60
2021/01/20 04:49:08;;;;;;;8.77;6.77;;;;;;;;;;2109119;28;20181;-57
2021/01/20 04:50:11;;;;;;;7.97;7.17;;;;;;;;;;2109214;28;20174;-59
2021/01/20 04:51:11;;;;;;;11.37;7.50;;;;;;;;;;2107532;28;20178;-56
2021/01/20 04:52:15;;;;;;;8.73;7.77;;;;;;;;;;2109051;28;20684;-59
2021/01/20 04:53:18;;;;;;;7.93;7.03;;;;;;;;;;2101546;28;20179;-57
2021/01/20 04:54:18;;;;;;;11.73;8.77;;;;;;;;;;2097628;28;20710;-56
2021/01/20 04:55:19;;;;;;;7.93;7.13;;;;;;;;;;2107221;28;20174;-59
2021/01/20 04:56:20;;;;;;;12.80;8.67;;;;;;;;;;2105357;28;20247;-57
2021/01/20 04:57:21;;;;;;;9.97;8.70;;;;;;;;;;2106589;28;20167;-58
2021/01/20 04:58:22;;;;;;;9.03;7.50;;;;;;;;;;2106968;28;20300;-58
2021/01/20 04:59:26;;;;;;;10.70;8.20;;;;;;;;;;2106664;28;20170;-59
2021/01/20 05:00:27;;;;;;;9.17;7.50;;;;;;;;;;2107612;28;20167;-58
2021/01/20 05:01:27;;;;;;;9.77;7.50;;;;;;;;;;2107592;28;20234;-59
2021/01/20 05:02:29;;;;;;;8.30;7.50;;;;;;;;;;2108189;28;20171;-61
2021/01/20 05:03:29;;;;;;;9.10;7.67;;;;;;;;;;2098070;28;20163;-59
2021/01/20 05:04:30;;;;;;;10.43;7.83;;;;;;;;;;2098628;28;20259;-57
2021/01/20 05:05:30;;;;;;;9.20;8.20;;;;;;;;;;2105844;28;20592;-58
2021/01/20 05:06:30;;;;;;;11.53;8.07;;;;;;;;;;2106833;28;20488;-57
2021/01/20 05:07:31;;;;;;;8.87;7.50;;;;;;;;;;2109997;28;20630;-58
2021/01/20 05:08:31;;;;;;;10.03;7.70;;;;;;;;;;2108193;28;20163;-58
2021/01/20 05:09:31;;;;;;;11.17;7.47;;;;;;;;;;2104106;28;20624;-57
2021/01/20 05:10:32;;;;;;;11.20;7.53;;;;;;;;;;2106132;28;20660;-59
2021/01/20 05:11:36;;;;;;;11.07;7.33;;;;;;;;;;2103882;28;20782;-58
2021/01/20 05:12:45;;;;;;;9.03;7.70;;;;;;;;;;2113165;28;20177;-57
2021/01/20 05:13:46;;;;;;;7.30;6.43;;;;;;;;;;2100549;28;20291;-59
2021/01/20 05:14:46;;;;;;;8.40;6.43;;;;;;;;;;2105598;28;20190;-56
2021/01/20 05:15:46;;;;;;;8.17;6.73;;;;;;;;;;2090084;28;20222;-58
2021/01/20 05:16:50;;;;;;;9.07;6.93;;;;;;;;;;2098194;28;20209;-58
2021/01/20 05:17:57;;;;;;;7.33;6.37;;;;;;;;;;2101419;28;20206;-57
2021/01/20 05:18:58;;;;;;;7.77;5.70;;;;;;;;;;2106221;28;20220;-59
2021/01/20 05:19:58;;;;;;;6.80;6.10;;;;;;;;;;2099022;28;20205;-60
2021/01/20 05:21:14;;;;;;;7.50;6.23;;;;;;;;;;2098543;28;20306;-61
2021/01/20 05:22:14;;;;;;;6.10;5.50;;;;;;;;;;2104617;28;20174;-59
2021/01/20 05:23:14;;;;;;;9.03;5.80;;;;;;;;;;2108184;28;20200;-57
2021/01/20 05:24:19;;;;;;;8.37;6.43;;;;;;;;;;2108343;28;20277;-59
2021/01/20 05:25:25;;;;;;;6.40;5.90;;;;;;;;;;2108102;28;20223;-59
2021/01/20 05:26:41;;;;;;;8.20;5.70;;;;;;;;;;2113955;28;20210;-59
2021/01/20 05:27:41;;;;;;;6.57;5.57;;;;;;;;;;2111839;28;20177;-59
2021/01/20 05:28:42;;;;;;;6.43;5.47;;;;;;;;;;2108585;28;20655;-59
2021/01/20 05:29:54;;;;;;;6.33;5.60;;;;;;;;;;2108327;28;20198;-59
2021/01/20 05:30:58;;;;;;;6.27;5.43;;;;;;;;;;2109717;28;20631;-59
2021/01/20 05:32:14;;;;;;;7.30;5.77;;;;;;;;;;2099845;28;20195;-57
2021/01/20 05:33:15;;;;;;;5.67;5.03;;;;;;;;;;2109869;28;20189;-62
2021/01/20 05:34:22;;;;;;;6.57;5.00;;;;;;;;;;2107234;28;20205;-58
2021/01/20 05:35:22;;;;;;;6.27;5.27;;;;;;;;;;2104014;28;20598;-59
2021/01/20 05:36:23;;;;;;;5.97;5.37;;;;;;;;;;2098833;28;20236;-58
2021/01/20 05:37:23;;;;;;;5.40;4.90;;;;;;;;;;2098483;28;20670;-59
2021/01/20 05:38:33;;;;;;;6.40;5.60;;;;;;;;;;2107804;28;20650;-55
2021/01/20 05:39:34;;;;;;;5.37;4.87;;;;;;;;;;2107939;28;20177;-57
2021/01/20 05:40:35;;;;;;;6.17;5.57;;;;;;;;;;2105582;28;20171;-58
2021/01/20 05:41:35;;;;;;;5.00;4.60;;;;;;;;;;2107172;28;20565;-60
2021/01/20 05:42:42;;;;;;;6.57;5.30;;;;;;;;;;2116074;28;20186;-58
2021/01/20 05:43:43;;;;;;;7.07;4.63;;;;;;;;;;2116480;28;20209;-59
2021/01/20 05:44:59;;;;;;;5.33;4.83;;;;;;;;;;2116543;28;20193;-58
2021/01/20 05:46:00;;;;;;;5.13;4.73;;;;;;;;;;2116436;28;20192;-59
2021/01/20 05:47:26;;;;;;;8.00;5.33;;;;;;;;;;2105817;28;20494;-56
2021/01/20 05:48:27;;;;;;;6.73;4.83;;;;;;;;;;2099585;28;20182;-59
2021/01/20 05:49:28;;;;;;;4.43;4.03;;;;;;;;;;2107792;28;20232;-58
2021/01/20 05:50:28;;;;;;;5.27;4.83;;;;;;;;;;2113683;28;20207;-56
2021/01/20 05:51:49;;;;;;;5.57;4.50;;;;;;;;;;2115760;28;20222;-58
2021/01/20 05:53:05;;;;;;;5.33;4.83;;;;;;;;;;2114609;28;20212;-59
2021/01/20 05:54:05;;;;;;;5.80;4.77;;;;;;;;;;2106564;28;20289;-57
2021/01/20 05:55:11;;;;;;;5.03;4.57;;;;;;;;;;2107128;28;20208;-60
2021/01/20 05:56:12;;;;;;;5.00;4.60;;;;;;;;;;2115915;28;20209;-56
2021/01/20 05:57:16;;;;;;;5.43;4.93;;;;;;;;;;2106862;28;20170;-58
2021/01/20 05:58:17;;;;;;;4.80;4.40;;;;;;;;;;2107644;28;20569;-59
2021/01/20 05:59:23;;;;;;;5.17;4.13;;;;;;;;;;2116010;28;20170;-57
2021/01/20 06:00:24;;;;;;;5.40;4.60;;;;;;;;;;2116425;28;20173;-61
2021/01/20 06:01:25;;;;;;;4.67;4.27;;;;;;;;;;2109819;28;20170;-59
2021/01/20 06:02:25;;;;;;;5.03;4.43;;;;;;;;;;2110941;28;20227;-58
2021/01/20 06:03:25;;;;;;;5.37;4.87;;;;;;;;;;2104542;28;20193;-58
2021/01/20 06:04:26;;;;;;;5.10;4.60;;;;;;;;;;2098810;28;20187;-60
2021/01/20 06:05:26;;;;;;;5.03;4.63;;;;;;;;;;2107698;28;20162;-61
2021/01/20 06:06:27;;;;;;;5.47;4.37;;;;;;;;;;2107272;28;20584;-58
2021/01/20 06:07:28;;;;;;;5.03;4.53;;;;;;;;;;2107126;28;20181;-58
2021/01/20 06:08:32;;;;;;;5.40;4.40;;;;;;;;;;2100896;28;20261;-60
2021/01/20 06:09:33;;;;;;;5.03;4.53;;;;;;;;;;2104825;28;20190;-59
2021/01/20 06:10:33;;;;;;;5.97;4.60;;;;;;;;;;2098629;28;20636;-58
2021/01/20 06:11:33;;;;;;;4.70;4.30;;;;;;;;;;2098355;28;20721;-57
2021/01/20 06:12:34;;;;;;;4.63;4.23;;;;;;;;;;2106897;28;20249;-58
2021/01/20 06:13:34;;;;;;;4.77;4.23;;;;;;;;;;2107730;28;20228;-61
2021/01/20 06:14:36;;;;;;;4.07;3.77;;;;;;;;;;2107636;28;20732;-58
2021/01/20 06:15:36;;;;;;;5.17;4.63;;;;;;;;;;2116561;28;20165;-58
2021/01/20 06:16:39;;;;;;;5.20;4.72;;;;;;;;;;2116461;28;20252;-58
2021/01/20 06:17:40;;;;;;;4.53;4.13;;;;;;;;;;2109621;28;20178;-59
2021/01/20 06:18:53;;;;;;;5.20;4.57;;;;;;;;;;2101608;28;20183;-59
2021/01/20 06:19:57;;;;;;;4.83;3.83;;;;;;;;;;2105197;28;20292;-59
2021/01/20 06:20:57;;;;;;;4.90;4.23;;;;;;;;;;2106814;28;20177;-57
2021/01/20 06:21:59;;;;;;;4.90;4.50;;;;;;;;;;2097502;28;20261;-58